sensor_id;sensor_type;location;lat;lon;timestamp;P1;durP1;ratioP1;P2;durP2;ratioP2
38190;SDS011;25191;47.510;19.124;2023-02-15T00:07:02;7.97;;;6.05;;
38190;SDS011;25191;47.510;19.124;2023-02-15T00:17:03;7.13;;;5.80;;
38190;SDS011;25191;47.510;19.124;2023-02-15T00:27:03;8.00;;;6.28;;
38190;SDS011;25191;47.510;19.124;2023-02-15T00:37:04;7.20;;;5.82;;
38190;SDS011;25191;47.510;19.124;2023-02-15T00:47:04;9.18;;;6.22;;
38190;SDS011;25191;47.510;19.124;2023-02-15T00:57:05;8.00;;;5.75;;
38190;SDS011;25191;47.510;19.124;2023-02-15T01:07:05;9.18;;;5.80;;
38190;SDS011;25191;47.510;19.124;2023-02-15T01:17:06;9.88;;;6.55;;
38190;SDS011;25191;47.510;19.124;2023-02-15T01:27:06;8.20;;;5.95;;
38190;SDS011;25191;47.510;19.124;2023-02-15T01:37:07;7.68;;;5.97;;
38190;SDS011;25191;47.510;19.124;2023-02-15T01:47:07;7.57;;;5.70;;
38190;SDS011;25191;47.510;19.124;2023-02-15T01:57:18;8.80;;;6.23;;
38190;SDS011;25191;47.510;19.124;2023-02-15T02:07:23;8.77;;;6.40;;
38190;SDS011;25191;47.510;19.124;2023-02-15T02:17:32;11.50;;;6.97;;
38190;SDS011;25191;47.510;19.124;2023-02-15T02:27:41;8.55;;;6.40;;
38190;SDS011;25191;47.510;19.124;2023-02-15T02:48:18;8.45;;;6.70;;
38190;SDS011;25191;47.510;19.124;2023-02-15T02:58:24;8.88;;;6.50;;
38190;SDS011;25191;47.510;19.124;2023-02-15T03:08:28;9.48;;;6.70;;
38190;SDS011;25191;47.510;19.124;2023-02-15T03:18:37;9.35;;;6.60;;
38190;SDS011;25191;47.510;19.124;2023-02-15T03:28:42;10.27;;;7.00;;
38190;SDS011;25191;47.510;19.124;2023-02-15T03:39:03;9.75;;;7.15;;
38190;SDS011;25191;47.510;19.124;2023-02-15T03:49:30;10.43;;;7.22;;
38190;SDS011;25191;47.510;19.124;2023-02-15T03:59:39;10.70;;;7.03;;
38190;SDS011;25191;47.510;19.124;2023-02-15T04:09:58;10.32;;;7.20;;
38190;SDS011;25191;47.510;19.124;2023-02-15T04:20:17;9.20;;;6.93;;
38190;SDS011;25191;47.510;19.124;2023-02-15T04:30:36;10.23;;;7.18;;
38190;SDS011;25191;47.510;19.124;2023-02-15T04:40:37;11.05;;;7.32;;
38190;SDS011;25191;47.510;19.124;2023-02-15T04:50:37;10.25;;;7.10;;
38190;SDS011;25191;47.510;19.124;2023-02-15T05:00:38;8.55;;;6.82;;
38190;SDS011;25191;47.510;19.124;2023-02-15T05:10:39;10.38;;;7.00;;
38190;SDS011;25191;47.510;19.124;2023-02-15T05:20:40;10.85;;;7.13;;
38190;SDS011;25191;47.510;19.124;2023-02-15T05:30:40;9.20;;;6.30;;
38190;SDS011;25191;47.510;19.124;2023-02-15T05:40:41;14.32;;;6.95;;
38190;SDS011;25191;47.510;19.124;2023-02-15T05:50:41;9.70;;;6.68;;
38190;SDS011;25191;47.510;19.124;2023-02-15T06:00:42;17.98;;;7.85;;
38190;SDS011;25191;47.510;19.124;2023-02-15T06:10:42;18.98;;;8.43;;
38190;SDS011;25191;47.510;19.124;2023-02-15T06:20:45;18.38;;;9.43;;
38190;SDS011;25191;47.510;19.124;2023-02-15T06:30:47;12.10;;;7.80;;
38190;SDS011;25191;47.510;19.124;2023-02-15T06:40:47;16.27;;;8.52;;
38190;SDS011;25191;47.510;19.124;2023-02-15T06:50:49;21.33;;;8.77;;
38190;SDS011;25191;47.510;19.124;2023-02-15T07:00:51;20.25;;;9.38;;
38190;SDS011;25191;47.510;19.124;2023-02-15T07:10:53;19.63;;;9.97;;
38190;SDS011;25191;47.510;19.124;2023-02-15T07:20:54;16.95;;;8.68;;
38190;SDS011;25191;47.510;19.124;2023-02-15T07:30:55;16.42;;;8.52;;
38190;SDS011;25191;47.510;19.124;2023-02-15T07:40:57;15.83;;;8.33;;
38190;SDS011;25191;47.510;19.124;2023-02-15T07:50:59;18.47;;;10.90;;
38190;SDS011;25191;47.510;19.124;2023-02-15T08:01:01;28.27;;;16.63;;
38190;SDS011;25191;47.510;19.124;2023-02-15T08:21:26;18.38;;;11.10;;
38190;SDS011;25191;47.510;19.124;2023-02-15T08:31:28;22.40;;;13.63;;
38190;SDS011;25191;47.510;19.124;2023-02-15T08:41:29;16.95;;;11.30;;
38190;SDS011;25191;47.510;19.124;2023-02-15T08:51:32;18.15;;;11.02;;
38190;SDS011;25191;47.510;19.124;2023-02-15T09:11:36;16.88;;;10.45;;
38190;SDS011;25191;47.510;19.124;2023-02-15T09:21:41;19.75;;;12.10;;
38190;SDS011;25191;47.510;19.124;2023-02-15T09:31:43;19.27;;;10.65;;
38190;SDS011;25191;47.510;19.124;2023-02-15T09:41:50;15.50;;;10.65;;
38190;SDS011;25191;47.510;19.124;2023-02-15T10:02:34;14.85;;;9.63;;
38190;SDS011;25191;47.510;19.124;2023-02-15T10:33:43;12.68;;;9.18;;
38190;SDS011;25191;47.510;19.124;2023-02-15T11:04:38;12.73;;;8.30;;
38190;SDS011;25191;47.510;19.124;2023-02-15T11:14:57;11.30;;;7.65;;
38190;SDS011;25191;47.510;19.124;2023-02-15T11:25:14;12.10;;;7.82;;
38190;SDS011;25191;47.510;19.124;2023-02-15T11:35:29;9.68;;;7.68;;
38190;SDS011;25191;47.510;19.124;2023-02-15T11:45:36;13.40;;;7.30;;
38190;SDS011;25191;47.510;19.124;2023-02-15T11:55:36;11.27;;;7.55;;
38190;SDS011;25191;47.510;19.124;2023-02-15T12:05:37;19.77;;;13.00;;
38190;SDS011;25191;47.510;19.124;2023-02-15T12:15:42;11.20;;;8.55;;
38190;SDS011;25191;47.510;19.124;2023-02-15T12:35:56;14.50;;;7.18;;
38190;SDS011;25191;47.510;19.124;2023-02-15T12:46:24;8.73;;;6.50;;
38190;SDS011;25191;47.510;19.124;2023-02-15T12:56:26;8.85;;;6.00;;
38190;SDS011;25191;47.510;19.124;2023-02-15T13:06:27;7.87;;;5.73;;
38190;SDS011;25191;47.510;19.124;2023-02-15T13:16:35;7.90;;;6.10;;
38190;SDS011;25191;47.510;19.124;2023-02-15T13:26:37;7.50;;;5.57;;
38190;SDS011;25191;47.510;19.124;2023-02-15T14:18:06;7.57;;;5.18;;
38190;SDS011;25191;47.510;19.124;2023-02-15T14:28:27;15.53;;;6.47;;
38190;SDS011;25191;47.510;19.124;2023-02-15T14:48:49;11.57;;;5.82;;
38190;SDS011;25191;47.510;19.124;2023-02-15T15:08:58;13.07;;;5.75;;
38190;SDS011;25191;47.510;19.124;2023-02-15T15:19:09;12.43;;;6.22;;
38190;SDS011;25191;47.510;19.124;2023-02-15T15:49:40;13.50;;;6.03;;
38190;SDS011;25191;47.510;19.124;2023-02-15T15:59:45;12.85;;;6.18;;
38190;SDS011;25191;47.510;19.124;2023-02-15T16:20:24;11.52;;;5.60;;
38190;SDS011;25191;47.510;19.124;2023-02-15T16:30:31;23.42;;;13.50;;
38190;SDS011;25191;47.510;19.124;2023-02-15T16:40:54;15.48;;;9.27;;
38190;SDS011;25191;47.510;19.124;2023-02-15T16:50:57;15.30;;;8.02;;
38190;SDS011;25191;47.510;19.124;2023-02-15T17:01:00;10.43;;;7.07;;
38190;SDS011;25191;47.510;19.124;2023-02-15T17:11:04;17.20;;;7.18;;
38190;SDS011;25191;47.510;19.124;2023-02-15T17:21:12;12.13;;;6.38;;
38190;SDS011;25191;47.510;19.124;2023-02-15T17:31:20;19.73;;;6.47;;
38190;SDS011;25191;47.510;19.124;2023-02-15T17:51:26;14.75;;;5.90;;
38190;SDS011;25191;47.510;19.124;2023-02-15T18:01:26;10.13;;;5.03;;
38190;SDS011;25191;47.510;19.124;2023-02-15T18:11:46;8.38;;;5.28;;
38190;SDS011;25191;47.510;19.124;2023-02-15T18:21:49;10.77;;;6.57;;
38190;SDS011;25191;47.510;19.124;2023-02-15T18:31:52;14.23;;;6.55;;
38190;SDS011;25191;47.510;19.124;2023-02-15T18:41:56;65.03;;;30.08;;
38190;SDS011;25191;47.510;19.124;2023-02-15T18:51:58;51.60;;;22.85;;
38190;SDS011;25191;47.510;19.124;2023-02-15T19:01:59;44.85;;;19.83;;
38190;SDS011;25191;47.510;19.124;2023-02-15T19:12:01;42.33;;;18.23;;
38190;SDS011;25191;47.510;19.124;2023-02-15T19:22:02;34.45;;;16.00;;
38190;SDS011;25191;47.510;19.124;2023-02-15T19:32:03;35.35;;;15.75;;
38190;SDS011;25191;47.510;19.124;2023-02-15T19:42:04;27.33;;;13.93;;
38190;SDS011;25191;47.510;19.124;2023-02-15T19:52:17;29.27;;;13.05;;
38190;SDS011;25191;47.510;19.124;2023-02-15T20:02:23;38.10;;;17.90;;
38190;SDS011;25191;47.510;19.124;2023-02-15T20:12:25;28.83;;;15.77;;
38190;SDS011;25191;47.510;19.124;2023-02-15T20:22:29;26.77;;;15.27;;
38190;SDS011;25191;47.510;19.124;2023-02-15T20:32:33;25.63;;;14.07;;
38190;SDS011;25191;47.510;19.124;2023-02-15T20:42:38;25.10;;;12.15;;
38190;SDS011;25191;47.510;19.124;2023-02-15T20:52:39;24.40;;;11.97;;
38190;SDS011;25191;47.510;19.124;2023-02-15T21:02:40;20.38;;;11.15;;
38190;SDS011;25191;47.510;19.124;2023-02-15T21:12:42;16.65;;;10.50;;
38190;SDS011;25191;47.510;19.124;2023-02-15T21:22:43;19.25;;;10.82;;
38190;SDS011;25191;47.510;19.124;2023-02-15T21:32:45;16.75;;;10.68;;
38190;SDS011;25191;47.510;19.124;2023-02-15T21:42:47;17.77;;;10.33;;
38190;SDS011;25191;47.510;19.124;2023-02-15T21:53:08;17.75;;;11.02;;
38190;SDS011;25191;47.510;19.124;2023-02-15T22:03:13;15.38;;;9.73;;
38190;SDS011;25191;47.510;19.124;2023-02-15T22:13:22;18.67;;;10.20;;
38190;SDS011;25191;47.510;19.124;2023-02-15T22:23:36;17.45;;;10.85;;
38190;SDS011;25191;47.510;19.124;2023-02-15T22:33:38;19.63;;;10.85;;
38190;SDS011;25191;47.510;19.124;2023-02-15T22:43:39;14.57;;;10.23;;
38190;SDS011;25191;47.510;19.124;2023-02-15T22:53:42;18.92;;;11.60;;
38190;SDS011;25191;47.510;19.124;2023-02-15T23:03:43;17.98;;;11.18;;
38190;SDS011;25191;47.510;19.124;2023-02-15T23:13:44;15.60;;;11.10;;
38190;SDS011;25191;47.510;19.124;2023-02-15T23:23:49;16.77;;;11.50;;
38190;SDS011;25191;47.510;19.124;2023-02-15T23:33:54;16.35;;;11.35;;
38190;SDS011;25191;47.510;19.124;2023-02-15T23:43:57;17.35;;;11.13;;
38190;SDS011;25191;47.510;19.124;2023-02-15T23:54:00;18.10;;;11.82;;
